This is the latest recevied weather packets stored in our database for station/object WB2CMF. If no packets are shown the sender has not sent any weather packets the latest 10 day(s).
| Time | Temp. | Humidity | Pressure | Rain* | Wind** | Luminosity | Snow |
|---|---|---|---|---|---|---|---|
| 1777406454 | 16.67° C | 35% | 1019.6 hPa | 0 mm | - | - | - |
| 1777404654 | 17.22° C | 36% | 1020.2 hPa | 0 mm | - | - | - |
| 1777363252 | 6.67° C | 63% | 1022.3 hPa | 0 mm | - | - | - |
| 1777357852 | 8.33° C | 58% | 1022.5 hPa | 0 mm | - | - | - |
| 1777336251 | 11.11° C | 49% | 1024.7 hPa | 0 mm | - | - | - |
| 1777327251 | 16.11° C | 37% | 1024.2 hPa | 0 mm | - | - | - |
| 1777325451 | 16.67° C | 36% | 1023.9 hPa | 0 mm | - | - | - |
| 1777321851 | 17.22° C | 35% | 1023.8 hPa | 0 mm | - | - | - |
| 1777320051 | 17.78° C | 35% | 1023.5 hPa | 0 mm | - | - | - |
| 1777316451 | 18.89° C | 36% | 1023.5 hPa | 0 mm | - | - | - |
| 1777314651 | 19.44° C | 34% | 1023.6 hPa | 0 mm | - | - | - |
| 1777312850 | 19.44° C | 26% | 1023.7 hPa | 0 mm | - | - | - |
| 1777303850 | 17.22° C | 29% | 1024.2 hPa | 0 mm | - | - | - |
| 1777284049 | 4.44° C | 77% | 1022.6 hPa | 0 mm | - | - | - |
| 1777282249 | 5° C | 77% | 1022.5 hPa | 0 mm | - | - | - |
| 1777266049 | 5.56° C | 66% | 1022.1 hPa | 0 mm | - | - | - |
| 1777237248 | 12.78° C | 50% | 1020 hPa | 6.6 mm | - | - | - |
| 1777224648 | 8.89° C | 69% | 1019.9 hPa | 6.6 mm | - | - | - |
| 1777195846 | 3.89° C | 80% | 1017.3 hPa | 6.35 mm | - | - | - |
| 1777194047 | 3.89° C | 80% | 1017.3 hPa | 6.35 mm | - | - | - |
| 1777181446 | 4.44° C | 80% | 1017.7 hPa | 5.08 mm | - | - | - |
| 1777179646 | 4.44° C | 79% | 1018.2 hPa | 3.81 mm | - | - | - |
| 1777172446 | 5° C | 76% | 1018.4 hPa | 2.54 mm | - | - | - |
| 1777168846 | 5° C | 75% | 1018 hPa | 0 mm | - | - | - |
| 1777167046 | 5° C | 74% | 1017.9 hPa | 0 mm | - | - | - |
* Rain since midnight (hover to see other rain measurements)
** Current wind speed in m/s (hover to see current wind gust speed)